sensor_id;sensor_type;location;lat;lon;timestamp;P1;durP1;ratioP1;P2;durP2;ratioP2
39448;SDS011;25151;45.566;9.382;2022-07-15T00:01:07;4.00;;;2.33;;
39448;SDS011;25151;45.566;9.382;2022-07-15T00:04:08;3.30;;;1.83;;
39448;SDS011;25151;45.566;9.382;2022-07-15T00:07:10;5.57;;;1.90;;
39448;SDS011;25151;45.566;9.382;2022-07-15T00:10:10;7.05;;;2.38;;
39448;SDS011;25151;45.566;9.382;2022-07-15T00:13:14;6.30;;;2.20;;
39448;SDS011;25151;45.566;9.382;2022-07-15T00:16:14;6.65;;;2.17;;
39448;SDS011;25151;45.566;9.382;2022-07-15T00:19:15;4.35;;;2.28;;
39448;SDS011;25151;45.566;9.382;2022-07-15T00:22:16;4.07;;;2.03;;
39448;SDS011;25151;45.566;9.382;2022-07-15T00:25:16;5.10;;;2.25;;
39448;SDS011;25151;45.566;9.382;2022-07-15T00:28:17;8.23;;;2.30;;
39448;SDS011;25151;45.566;9.382;2022-07-15T00:31:18;3.95;;;1.60;;
39448;SDS011;25151;45.566;9.382;2022-07-15T00:34:18;2.55;;;1.92;;
39448;SDS011;25151;45.566;9.382;2022-07-15T00:37:19;4.97;;;2.10;;
39448;SDS011;25151;45.566;9.382;2022-07-15T00:40:20;7.03;;;2.63;;
39448;SDS011;25151;45.566;9.382;2022-07-15T00:43:22;2.63;;;1.65;;
39448;SDS011;25151;45.566;9.382;2022-07-15T00:46:22;4.28;;;2.22;;
39448;SDS011;25151;45.566;9.382;2022-07-15T00:49:23;4.03;;;1.88;;
39448;SDS011;25151;45.566;9.382;2022-07-15T00:52:23;4.07;;;2.20;;
39448;SDS011;25151;45.566;9.382;2022-07-15T00:55:29;9.65;;;2.72;;
39448;SDS011;25151;45.566;9.382;2022-07-15T00:58:31;4.70;;;2.10;;
39448;SDS011;25151;45.566;9.382;2022-07-15T01:01:35;5.22;;;1.92;;
39448;SDS011;25151;45.566;9.382;2022-07-15T01:04:36;3.53;;;1.85;;
39448;SDS011;25151;45.566;9.382;2022-07-15T01:07:39;6.05;;;2.08;;
39448;SDS011;25151;45.566;9.382;2022-07-15T01:10:40;3.58;;;1.75;;
39448;SDS011;25151;45.566;9.382;2022-07-15T01:13:41;4.22;;;1.92;;
39448;SDS011;25151;45.566;9.382;2022-07-15T01:16:41;4.85;;;2.10;;
39448;SDS011;25151;45.566;9.382;2022-07-15T01:19:42;4.25;;;2.33;;
39448;SDS011;25151;45.566;9.382;2022-07-15T01:22:43;3.00;;;1.80;;
39448;SDS011;25151;45.566;9.382;2022-07-15T01:25:43;3.17;;;2.00;;
39448;SDS011;25151;45.566;9.382;2022-07-15T01:28:47;2.33;;;1.42;;
39448;SDS011;25151;45.566;9.382;2022-07-15T01:31:48;4.25;;;2.38;;
39448;SDS011;25151;45.566;9.382;2022-07-15T01:34:50;4.30;;;2.13;;
39448;SDS011;25151;45.566;9.382;2022-07-15T01:37:51;8.27;;;2.67;;
39448;SDS011;25151;45.566;9.382;2022-07-15T01:40:52;6.00;;;1.90;;
39448;SDS011;25151;45.566;9.382;2022-07-15T01:43:52;4.25;;;1.77;;
39448;SDS011;25151;45.566;9.382;2022-07-15T01:46:53;3.58;;;1.58;;
39448;SDS011;25151;45.566;9.382;2022-07-15T01:49:54;3.05;;;1.88;;
39448;SDS011;25151;45.566;9.382;2022-07-15T01:52:54;4.03;;;2.22;;
39448;SDS011;25151;45.566;9.382;2022-07-15T01:55:55;4.05;;;2.10;;
39448;SDS011;25151;45.566;9.382;2022-07-15T01:58:55;3.65;;;1.80;;
39448;SDS011;25151;45.566;9.382;2022-07-15T02:01:56;4.93;;;2.35;;
39448;SDS011;25151;45.566;9.382;2022-07-15T02:04:57;4.10;;;2.53;;
39448;SDS011;25151;45.566;9.382;2022-07-15T02:07:58;6.75;;;2.90;;
39448;SDS011;25151;45.566;9.382;2022-07-15T02:10:59;6.18;;;3.60;;
39448;SDS011;25151;45.566;9.382;2022-07-15T02:14:00;5.68;;;3.50;;
39448;SDS011;25151;45.566;9.382;2022-07-15T02:17:03;5.85;;;3.47;;
39448;SDS011;25151;45.566;9.382;2022-07-15T02:20:04;7.97;;;3.58;;
39448;SDS011;25151;45.566;9.382;2022-07-15T02:23:05;6.38;;;3.30;;
39448;SDS011;25151;45.566;9.382;2022-07-15T02:26:06;6.65;;;3.83;;
39448;SDS011;25151;45.566;9.382;2022-07-15T02:29:07;7.05;;;3.88;;
39448;SDS011;25151;45.566;9.382;2022-07-15T02:32:07;6.75;;;4.20;;
39448;SDS011;25151;45.566;9.382;2022-07-15T02:35:08;10.40;;;4.72;;
39448;SDS011;25151;45.566;9.382;2022-07-15T02:38:09;8.30;;;5.00;;
39448;SDS011;25151;45.566;9.382;2022-07-15T02:41:10;7.88;;;4.35;;
39448;SDS011;25151;45.566;9.382;2022-07-15T02:44:13;5.75;;;4.32;;
39448;SDS011;25151;45.566;9.382;2022-07-15T02:47:14;7.72;;;4.60;;
39448;SDS011;25151;45.566;9.382;2022-07-15T02:50:17;8.25;;;4.60;;
39448;SDS011;25151;45.566;9.382;2022-07-15T02:53:18;6.95;;;3.78;;
39448;SDS011;25151;45.566;9.382;2022-07-15T02:56:20;6.65;;;4.25;;
39448;SDS011;25151;45.566;9.382;2022-07-15T02:59:21;7.95;;;5.03;;
39448;SDS011;25151;45.566;9.382;2022-07-15T03:02:21;7.32;;;4.65;;
39448;SDS011;25151;45.566;9.382;2022-07-15T03:05:22;5.55;;;4.20;;
39448;SDS011;25151;45.566;9.382;2022-07-15T03:08:23;8.85;;;4.80;;
39448;SDS011;25151;45.566;9.382;2022-07-15T03:11:24;6.82;;;4.88;;
39448;SDS011;25151;45.566;9.382;2022-07-15T03:14:25;7.68;;;4.50;;
39448;SDS011;25151;45.566;9.382;2022-07-15T03:17:26;5.80;;;4.43;;
39448;SDS011;25151;45.566;9.382;2022-07-15T03:20:27;7.18;;;4.93;;
39448;SDS011;25151;45.566;9.382;2022-07-15T03:23:27;5.88;;;4.63;;
39448;SDS011;25151;45.566;9.382;2022-07-15T03:26:28;6.80;;;4.80;;
39448;SDS011;25151;45.566;9.382;2022-07-15T03:29:29;6.75;;;4.38;;
39448;SDS011;25151;45.566;9.382;2022-07-15T03:32:30;5.90;;;4.35;;
39448;SDS011;25151;45.566;9.382;2022-07-15T03:35:30;9.38;;;4.22;;
39448;SDS011;25151;45.566;9.382;2022-07-15T03:38:31;6.57;;;4.55;;
39448;SDS011;25151;45.566;9.382;2022-07-15T03:41:32;9.18;;;4.65;;
39448;SDS011;25151;45.566;9.382;2022-07-15T03:44:33;7.28;;;4.72;;
39448;SDS011;25151;45.566;9.382;2022-07-15T03:47:34;5.68;;;4.57;;
39448;SDS011;25151;45.566;9.382;2022-07-15T03:50:35;9.75;;;4.88;;
39448;SDS011;25151;45.566;9.382;2022-07-15T03:53:36;9.48;;;5.78;;
39448;SDS011;25151;45.566;9.382;2022-07-15T03:56:37;9.73;;;5.20;;
39448;SDS011;25151;45.566;9.382;2022-07-15T03:59:37;9.32;;;4.95;;
39448;SDS011;25151;45.566;9.382;2022-07-15T04:02:38;9.77;;;4.40;;
39448;SDS011;25151;45.566;9.382;2022-07-15T04:05:39;5.50;;;4.50;;
39448;SDS011;25151;45.566;9.382;2022-07-15T04:08:40;8.13;;;5.07;;
39448;SDS011;25151;45.566;9.382;2022-07-15T04:11:41;10.80;;;5.60;;
39448;SDS011;25151;45.566;9.382;2022-07-15T04:14:42;8.82;;;5.25;;
39448;SDS011;25151;45.566;9.382;2022-07-15T04:17:43;27.25;;;6.85;;
39448;SDS011;25151;45.566;9.382;2022-07-15T04:20:43;50.30;;;9.43;;
39448;SDS011;25151;45.566;9.382;2022-07-15T04:23:44;36.90;;;8.45;;
39448;SDS011;25151;45.566;9.382;2022-07-15T04:26:45;29.65;;;6.53;;
39448;SDS011;25151;45.566;9.382;2022-07-15T04:29:45;16.88;;;6.30;;
39448;SDS011;25151;45.566;9.382;2022-07-15T04:32:47;16.35;;;6.15;;
39448;SDS011;25151;45.566;9.382;2022-07-15T04:35:49;13.63;;;6.00;;
39448;SDS011;25151;45.566;9.382;2022-07-15T04:38:49;11.25;;;6.07;;
39448;SDS011;25151;45.566;9.382;2022-07-15T04:41:50;13.00;;;6.40;;
39448;SDS011;25151;45.566;9.382;2022-07-15T04:44:51;16.08;;;5.57;;
39448;SDS011;25151;45.566;9.382;2022-07-15T04:47:52;12.90;;;5.53;;
39448;SDS011;25151;45.566;9.382;2022-07-15T04:50:53;13.55;;;5.50;;
39448;SDS011;25151;45.566;9.382;2022-07-15T04:53:54;12.13;;;5.80;;
39448;SDS011;25151;45.566;9.382;2022-07-15T04:56:54;16.30;;;5.93;;
39448;SDS011;25151;45.566;9.382;2022-07-15T04:59:55;12.65;;;6.03;;
39448;SDS011;25151;45.566;9.382;2022-07-15T05:02:56;16.02;;;5.43;;
39448;SDS011;25151;45.566;9.382;2022-07-15T05:05:56;18.73;;;6.00;;
39448;SDS011;25151;45.566;9.382;2022-07-15T05:08:57;17.52;;;5.95;;
39448;SDS011;25151;45.566;9.382;2022-07-15T05:11:58;14.00;;;5.80;;
39448;SDS011;25151;45.566;9.382;2022-07-15T05:14:59;11.00;;;5.70;;
39448;SDS011;25151;45.566;9.382;2022-07-15T05:18:02;17.80;;;5.65;;
39448;SDS011;25151;45.566;9.382;2022-07-15T05:21:03;21.63;;;5.75;;
39448;SDS011;25151;45.566;9.382;2022-07-15T05:24:11;12.80;;;5.13;;
39448;SDS011;25151;45.566;9.382;2022-07-15T05:27:12;16.58;;;5.63;;
39448;SDS011;25151;45.566;9.382;2022-07-15T05:30:15;15.45;;;6.10;;
39448;SDS011;25151;45.566;9.382;2022-07-15T05:33:16;14.88;;;5.50;;
39448;SDS011;25151;45.566;9.382;2022-07-15T05:36:18;10.13;;;5.10;;
39448;SDS011;25151;45.566;9.382;2022-07-15T05:39:19;12.82;;;5.32;;
39448;SDS011;25151;45.566;9.382;2022-07-15T05:42:20;12.57;;;5.78;;
39448;SDS011;25151;45.566;9.382;2022-07-15T05:45:21;11.60;;;5.40;;
39448;SDS011;25151;45.566;9.382;2022-07-15T05:48:22;22.63;;;6.28;;
39448;SDS011;25151;45.566;9.382;2022-07-15T05:51:23;20.05;;;6.30;;
39448;SDS011;25151;45.566;9.382;2022-07-15T05:54:24;22.15;;;6.80;;
39448;SDS011;25151;45.566;9.382;2022-07-15T05:57:26;22.33;;;7.13;;
39448;SDS011;25151;45.566;9.382;2022-07-15T06:00:26;20.67;;;5.70;;
39448;SDS011;25151;45.566;9.382;2022-07-15T06:03:27;16.50;;;5.43;;
39448;SDS011;25151;45.566;9.382;2022-07-15T06:06:28;11.00;;;4.72;;
39448;SDS011;25151;45.566;9.382;2022-07-15T06:09:28;11.15;;;5.25;;
39448;SDS011;25151;45.566;9.382;2022-07-15T06:12:29;11.75;;;4.90;;
39448;SDS011;25151;45.566;9.382;2022-07-15T06:15:30;5.75;;;3.80;;
39448;SDS011;25151;45.566;9.382;2022-07-15T06:18:30;10.57;;;4.68;;
39448;SDS011;25151;45.566;9.382;2022-07-15T06:21:31;20.05;;;4.82;;
39448;SDS011;25151;45.566;9.382;2022-07-15T06:24:32;12.20;;;4.53;;
39448;SDS011;25151;45.566;9.382;2022-07-15T06:27:33;8.85;;;4.28;;
39448;SDS011;25151;45.566;9.382;2022-07-15T06:30:34;10.95;;;4.63;;
39448;SDS011;25151;45.566;9.382;2022-07-15T06:33:35;11.80;;;4.60;;
39448;SDS011;25151;45.566;9.382;2022-07-15T06:36:37;12.15;;;4.70;;
39448;SDS011;25151;45.566;9.382;2022-07-15T06:39:38;13.00;;;4.50;;
39448;SDS011;25151;45.566;9.382;2022-07-15T06:42:38;15.98;;;4.43;;
39448;SDS011;25151;45.566;9.382;2022-07-15T06:45:39;10.00;;;4.38;;
39448;SDS011;25151;45.566;9.382;2022-07-15T06:48:40;10.07;;;4.43;;
39448;SDS011;25151;45.566;9.382;2022-07-15T06:51:42;15.07;;;4.75;;
39448;SDS011;25151;45.566;9.382;2022-07-15T06:54:42;15.07;;;5.38;;
39448;SDS011;25151;45.566;9.382;2022-07-15T06:57:44;11.85;;;5.05;;
39448;SDS011;25151;45.566;9.382;2022-07-15T07:00:45;11.25;;;5.20;;
39448;SDS011;25151;45.566;9.382;2022-07-15T07:03:46;8.68;;;4.45;;
39448;SDS011;25151;45.566;9.382;2022-07-15T07:06:46;13.70;;;4.90;;
39448;SDS011;25151;45.566;9.382;2022-07-15T07:09:47;10.68;;;4.78;;
39448;SDS011;25151;45.566;9.382;2022-07-15T07:12:48;7.53;;;4.18;;
39448;SDS011;25151;45.566;9.382;2022-07-15T07:15:48;10.85;;;4.60;;
39448;SDS011;25151;45.566;9.382;2022-07-15T07:18:49;10.18;;;4.13;;
39448;SDS011;25151;45.566;9.382;2022-07-15T07:21:50;13.55;;;4.63;;
39448;SDS011;25151;45.566;9.382;2022-07-15T07:24:52;17.77;;;4.63;;
39448;SDS011;25151;45.566;9.382;2022-07-15T07:27:53;10.48;;;3.95;;
39448;SDS011;25151;45.566;9.382;2022-07-15T07:30:55;8.57;;;4.68;;
39448;SDS011;25151;45.566;9.382;2022-07-15T07:33:56;7.55;;;4.18;;
39448;SDS011;25151;45.566;9.382;2022-07-15T07:36:57;9.52;;;3.97;;
39448;SDS011;25151;45.566;9.382;2022-07-15T07:39:58;6.85;;;4.35;;
39448;SDS011;25151;45.566;9.382;2022-07-15T07:42:59;13.82;;;4.50;;
39448;SDS011;25151;45.566;9.382;2022-07-15T07:46:04;15.82;;;4.97;;
39448;SDS011;25151;45.566;9.382;2022-07-15T07:49:06;16.20;;;4.80;;
39448;SDS011;25151;45.566;9.382;2022-07-15T07:52:07;15.30;;;5.00;;
39448;SDS011;25151;45.566;9.382;2022-07-15T07:55:08;16.38;;;5.50;;
39448;SDS011;25151;45.566;9.382;2022-07-15T07:58:10;14.05;;;4.65;;
39448;SDS011;25151;45.566;9.382;2022-07-15T08:01:12;11.82;;;4.85;;
39448;SDS011;25151;45.566;9.382;2022-07-15T08:04:12;13.02;;;4.57;;
39448;SDS011;25151;45.566;9.382;2022-07-15T08:07:16;9.73;;;4.15;;
39448;SDS011;25151;45.566;9.382;2022-07-15T08:10:17;10.25;;;3.95;;
39448;SDS011;25151;45.566;9.382;2022-07-15T08:13:20;10.05;;;3.80;;
39448;SDS011;25151;45.566;9.382;2022-07-15T08:16:22;11.02;;;5.38;;
39448;SDS011;25151;45.566;9.382;2022-07-15T08:19:27;10.77;;;4.63;;
39448;SDS011;25151;45.566;9.382;2022-07-15T08:22:31;10.07;;;4.13;;
39448;SDS011;25151;45.566;9.382;2022-07-15T08:25:33;6.65;;;3.70;;
39448;SDS011;25151;45.566;9.382;2022-07-15T08:28:36;9.55;;;4.00;;
39448;SDS011;25151;45.566;9.382;2022-07-15T08:31:37;9.60;;;4.00;;
39448;SDS011;25151;45.566;9.382;2022-07-15T08:34:38;10.63;;;4.53;;
39448;SDS011;25151;45.566;9.382;2022-07-15T08:37:45;7.00;;;4.05;;
39448;SDS011;25151;45.566;9.382;2022-07-15T08:40:45;9.57;;;4.22;;
39448;SDS011;25151;45.566;9.382;2022-07-15T08:43:46;7.78;;;3.92;;
39448;SDS011;25151;45.566;9.382;2022-07-15T08:46:48;10.18;;;4.57;;
39448;SDS011;25151;45.566;9.382;2022-07-15T08:49:49;10.90;;;4.32;;
39448;SDS011;25151;45.566;9.382;2022-07-15T08:52:56;10.48;;;4.20;;
39448;SDS011;25151;45.566;9.382;2022-07-15T08:55:58;8.10;;;3.65;;
39448;SDS011;25151;45.566;9.382;2022-07-15T08:59:00;7.43;;;3.60;;
39448;SDS011;25151;45.566;9.382;2022-07-15T09:02:02;7.93;;;4.00;;
39448;SDS011;25151;45.566;9.382;2022-07-15T09:08:36;8.68;;;3.78;;
39448;SDS011;25151;45.566;9.382;2022-07-15T09:11:37;6.65;;;3.40;;
39448;SDS011;25151;45.566;9.382;2022-07-15T09:14:39;6.03;;;4.07;;
39448;SDS011;25151;45.566;9.382;2022-07-15T09:17:44;8.13;;;3.53;;
39448;SDS011;25151;45.566;9.382;2022-07-15T09:20:46;7.68;;;3.97;;
39448;SDS011;25151;45.566;9.382;2022-07-15T09:23:48;7.65;;;4.25;;
39448;SDS011;25151;45.566;9.382;2022-07-15T09:26:49;10.98;;;4.55;;
39448;SDS011;25151;45.566;9.382;2022-07-15T09:29:50;9.20;;;4.20;;
39448;SDS011;25151;45.566;9.382;2022-07-15T09:33:10;8.77;;;3.63;;
39448;SDS011;25151;45.566;9.382;2022-07-15T09:36:31;11.55;;;4.32;;
39448;SDS011;25151;45.566;9.382;2022-07-15T09:39:32;8.30;;;3.78;;
39448;SDS011;25151;45.566;9.382;2022-07-15T09:43:01;7.50;;;4.13;;
39448;SDS011;25151;45.566;9.382;2022-07-15T09:46:06;6.47;;;3.45;;
39448;SDS011;25151;45.566;9.382;2022-07-15T09:49:07;9.18;;;4.00;;
39448;SDS011;25151;45.566;9.382;2022-07-15T09:52:09;8.07;;;3.85;;
39448;SDS011;25151;45.566;9.382;2022-07-15T09:55:12;7.63;;;3.47;;
39448;SDS011;25151;45.566;9.382;2022-07-15T09:58:14;6.40;;;3.60;;
39448;SDS011;25151;45.566;9.382;2022-07-15T10:01:15;8.15;;;3.20;;
39448;SDS011;25151;45.566;9.382;2022-07-15T10:04:17;6.15;;;3.50;;
39448;SDS011;25151;45.566;9.382;2022-07-15T10:07:19;8.50;;;3.42;;
39448;SDS011;25151;45.566;9.382;2022-07-15T10:10:20;10.38;;;3.75;;
39448;SDS011;25151;45.566;9.382;2022-07-15T10:23:29;8.63;;;3.33;;
39448;SDS011;25151;45.566;9.382;2022-07-15T10:30:02;9.63;;;3.30;;
39448;SDS011;25151;45.566;9.382;2022-07-15T10:36:05;8.50;;;3.97;;
39448;SDS011;25151;45.566;9.382;2022-07-15T10:39:07;7.80;;;3.28;;
39448;SDS011;25151;45.566;9.382;2022-07-15T10:42:11;10.68;;;3.00;;
39448;SDS011;25151;45.566;9.382;2022-07-15T10:45:12;7.57;;;3.78;;
39448;SDS011;25151;45.566;9.382;2022-07-15T10:48:26;5.65;;;2.83;;
39448;SDS011;25151;45.566;9.382;2022-07-15T10:54:38;7.07;;;3.35;;
39448;SDS011;25151;45.566;9.382;2022-07-15T11:00:47;3.97;;;2.72;;
39448;SDS011;25151;45.566;9.382;2022-07-15T11:07:18;7.18;;;3.20;;
39448;SDS011;25151;45.566;9.382;2022-07-15T11:10:20;6.22;;;2.80;;
39448;SDS011;25151;45.566;9.382;2022-07-15T11:13:32;5.10;;;2.88;;
39448;SDS011;25151;45.566;9.382;2022-07-15T11:19:35;6.07;;;2.85;;
39448;SDS011;25151;45.566;9.382;2022-07-15T11:22:43;8.02;;;2.72;;
39448;SDS011;25151;45.566;9.382;2022-07-15T11:25:49;7.88;;;3.67;;
39448;SDS011;25151;45.566;9.382;2022-07-15T11:32:00;7.40;;;2.53;;
39448;SDS011;25151;45.566;9.382;2022-07-15T11:35:01;6.80;;;2.55;;
39448;SDS011;25151;45.566;9.382;2022-07-15T11:38:03;6.35;;;3.13;;
39448;SDS011;25151;45.566;9.382;2022-07-15T11:41:04;7.40;;;2.65;;
39448;SDS011;25151;45.566;9.382;2022-07-15T11:44:24;6.72;;;2.70;;
39448;SDS011;25151;45.566;9.382;2022-07-15T11:47:32;10.80;;;2.70;;
39448;SDS011;25151;45.566;9.382;2022-07-15T11:50:34;6.05;;;2.88;;
39448;SDS011;25151;45.566;9.382;2022-07-15T11:53:40;6.45;;;3.55;;
39448;SDS011;25151;45.566;9.382;2022-07-15T11:56:43;9.02;;;2.88;;
39448;SDS011;25151;45.566;9.382;2022-07-15T11:59:53;5.25;;;2.67;;
39448;SDS011;25151;45.566;9.382;2022-07-15T12:06:43;7.07;;;2.85;;
39448;SDS011;25151;45.566;9.382;2022-07-15T12:09:50;6.20;;;2.63;;
39448;SDS011;25151;45.566;9.382;2022-07-15T12:12:53;4.70;;;3.25;;
39448;SDS011;25151;45.566;9.382;2022-07-15T12:15:56;7.43;;;2.95;;
39448;SDS011;25151;45.566;9.382;2022-07-15T12:18:58;3.90;;;2.65;;
39448;SDS011;25151;45.566;9.382;2022-07-15T12:22:08;6.00;;;2.95;;
39448;SDS011;25151;45.566;9.382;2022-07-15T12:25:17;8.05;;;3.13;;
39448;SDS011;25151;45.566;9.382;2022-07-15T12:28:30;6.53;;;2.85;;
39448;SDS011;25151;45.566;9.382;2022-07-15T12:31:33;4.05;;;2.47;;
39448;SDS011;25151;45.566;9.382;2022-07-15T12:37:48;3.15;;;2.20;;
39448;SDS011;25151;45.566;9.382;2022-07-15T12:40:50;4.95;;;2.47;;
39448;SDS011;25151;45.566;9.382;2022-07-15T12:43:52;7.25;;;3.05;;
39448;SDS011;25151;45.566;9.382;2022-07-15T12:47:04;5.70;;;2.47;;
39448;SDS011;25151;45.566;9.382;2022-07-15T12:50:06;6.53;;;2.35;;
39448;SDS011;25151;45.566;9.382;2022-07-15T12:53:07;3.97;;;2.83;;
39448;SDS011;25151;45.566;9.382;2022-07-15T12:56:09;3.92;;;2.35;;
39448;SDS011;25151;45.566;9.382;2022-07-15T12:59:10;4.47;;;2.53;;
39448;SDS011;25151;45.566;9.382;2022-07-15T13:02:11;5.93;;;3.03;;
39448;SDS011;25151;45.566;9.382;2022-07-15T13:05:12;7.05;;;2.50;;
39448;SDS011;25151;45.566;9.382;2022-07-15T13:08:13;11.60;;;3.00;;
39448;SDS011;25151;45.566;9.382;2022-07-15T13:11:20;5.38;;;3.03;;
39448;SDS011;25151;45.566;9.382;2022-07-15T13:14:24;6.20;;;2.33;;
39448;SDS011;25151;45.566;9.382;2022-07-15T13:17:25;5.93;;;3.08;;
39448;SDS011;25151;45.566;9.382;2022-07-15T13:20:26;5.85;;;2.67;;
39448;SDS011;25151;45.566;9.382;2022-07-15T13:23:27;5.50;;;2.72;;
39448;SDS011;25151;45.566;9.382;2022-07-15T13:26:28;6.82;;;2.92;;
39448;SDS011;25151;45.566;9.382;2022-07-15T13:29:29;5.50;;;2.67;;
39448;SDS011;25151;45.566;9.382;2022-07-15T13:32:29;9.05;;;2.75;;
39448;SDS011;25151;45.566;9.382;2022-07-15T13:35:30;4.03;;;2.72;;
39448;SDS011;25151;45.566;9.382;2022-07-15T13:38:32;5.28;;;2.55;;
39448;SDS011;25151;45.566;9.382;2022-07-15T13:41:32;4.88;;;2.22;;
39448;SDS011;25151;45.566;9.382;2022-07-15T13:44:33;7.55;;;2.72;;
39448;SDS011;25151;45.566;9.382;2022-07-15T13:47:38;2.60;;;2.38;;
39448;SDS011;25151;45.566;9.382;2022-07-15T13:50:40;4.85;;;2.47;;
39448;SDS011;25151;45.566;9.382;2022-07-15T13:53:59;11.23;;;2.88;;
39448;SDS011;25151;45.566;9.382;2022-07-15T13:56:59;3.78;;;2.55;;
39448;SDS011;25151;45.566;9.382;2022-07-15T14:00:00;3.50;;;2.65;;
39448;SDS011;25151;45.566;9.382;2022-07-15T14:03:01;6.90;;;2.72;;
39448;SDS011;25151;45.566;9.382;2022-07-15T14:06:02;6.15;;;2.92;;
39448;SDS011;25151;45.566;9.382;2022-07-15T14:09:04;5.93;;;2.40;;
39448;SDS011;25151;45.566;9.382;2022-07-15T14:12:05;8.18;;;2.50;;
39448;SDS011;25151;45.566;9.382;2022-07-15T14:15:06;7.07;;;2.42;;
39448;SDS011;25151;45.566;9.382;2022-07-15T14:18:07;5.90;;;2.47;;
39448;SDS011;25151;45.566;9.382;2022-07-15T14:21:09;5.18;;;2.30;;
39448;SDS011;25151;45.566;9.382;2022-07-15T14:24:10;3.97;;;2.53;;
39448;SDS011;25151;45.566;9.382;2022-07-15T14:27:11;2.80;;;2.28;;
39448;SDS011;25151;45.566;9.382;2022-07-15T14:30:12;7.57;;;2.78;;
39448;SDS011;25151;45.566;9.382;2022-07-15T14:33:13;4.47;;;2.33;;
39448;SDS011;25151;45.566;9.382;2022-07-15T14:36:14;5.25;;;2.28;;
39448;SDS011;25151;45.566;9.382;2022-07-15T14:39:15;4.57;;;1.90;;
39448;SDS011;25151;45.566;9.382;2022-07-15T14:42:16;4.57;;;2.50;;
39448;SDS011;25151;45.566;9.382;2022-07-15T14:45:17;5.50;;;2.42;;
39448;SDS011;25151;45.566;9.382;2022-07-15T14:48:18;5.45;;;2.40;;
39448;SDS011;25151;45.566;9.382;2022-07-15T14:51:19;5.22;;;2.30;;
39448;SDS011;25151;45.566;9.382;2022-07-15T14:54:20;5.57;;;2.72;;
39448;SDS011;25151;45.566;9.382;2022-07-15T14:57:20;6.35;;;2.08;;
39448;SDS011;25151;45.566;9.382;2022-07-15T15:00:21;4.63;;;2.28;;
39448;SDS011;25151;45.566;9.382;2022-07-15T15:03:22;6.22;;;2.47;;
39448;SDS011;25151;45.566;9.382;2022-07-15T15:06:25;5.10;;;2.40;;
39448;SDS011;25151;45.566;9.382;2022-07-15T15:09:26;4.88;;;2.15;;
39448;SDS011;25151;45.566;9.382;2022-07-15T15:12:28;9.23;;;2.92;;
39448;SDS011;25151;45.566;9.382;2022-07-15T15:15:30;3.03;;;2.20;;
39448;SDS011;25151;45.566;9.382;2022-07-15T15:18:31;6.20;;;2.33;;
39448;SDS011;25151;45.566;9.382;2022-07-15T15:21:32;4.30;;;2.45;;
39448;SDS011;25151;45.566;9.382;2022-07-15T15:24:33;4.65;;;2.25;;
39448;SDS011;25151;45.566;9.382;2022-07-15T15:27:35;6.22;;;2.30;;
39448;SDS011;25151;45.566;9.382;2022-07-15T15:30:36;6.10;;;2.20;;
39448;SDS011;25151;45.566;9.382;2022-07-15T15:33:37;4.10;;;2.53;;
39448;SDS011;25151;45.566;9.382;2022-07-15T15:36:42;4.97;;;2.53;;
39448;SDS011;25151;45.566;9.382;2022-07-15T15:39:45;5.55;;;2.70;;
39448;SDS011;25151;45.566;9.382;2022-07-15T15:42:46;4.72;;;2.28;;
39448;SDS011;25151;45.566;9.382;2022-07-15T15:45:47;5.20;;;2.15;;
39448;SDS011;25151;45.566;9.382;2022-07-15T15:48:48;4.60;;;2.35;;
39448;SDS011;25151;45.566;9.382;2022-07-15T15:51:49;3.25;;;1.90;;
39448;SDS011;25151;45.566;9.382;2022-07-15T15:54:49;4.53;;;2.08;;
39448;SDS011;25151;45.566;9.382;2022-07-15T15:57:50;3.65;;;2.10;;
39448;SDS011;25151;45.566;9.382;2022-07-15T16:00:51;6.47;;;2.25;;
39448;SDS011;25151;45.566;9.382;2022-07-15T16:03:52;3.75;;;1.95;;
39448;SDS011;25151;45.566;9.382;2022-07-15T16:06:53;4.68;;;2.13;;
39448;SDS011;25151;45.566;9.382;2022-07-15T16:09:54;4.18;;;2.25;;
39448;SDS011;25151;45.566;9.382;2022-07-15T16:12:57;8.00;;;2.70;;
39448;SDS011;25151;45.566;9.382;2022-07-15T16:15:59;3.08;;;1.73;;
39448;SDS011;25151;45.566;9.382;2022-07-15T16:19:00;3.25;;;2.25;;
39448;SDS011;25151;45.566;9.382;2022-07-15T16:22:02;6.43;;;2.17;;
39448;SDS011;25151;45.566;9.382;2022-07-15T16:25:29;10.48;;;2.60;;
39448;SDS011;25151;45.566;9.382;2022-07-15T16:28:32;9.13;;;2.40;;
39448;SDS011;25151;45.566;9.382;2022-07-15T16:31:33;6.07;;;2.13;;
39448;SDS011;25151;45.566;9.382;2022-07-15T16:34:34;6.85;;;2.80;;
39448;SDS011;25151;45.566;9.382;2022-07-15T16:37:40;3.58;;;1.95;;
39448;SDS011;25151;45.566;9.382;2022-07-15T16:40:43;4.50;;;2.28;;
39448;SDS011;25151;45.566;9.382;2022-07-15T16:43:44;7.85;;;2.72;;
39448;SDS011;25151;45.566;9.382;2022-07-15T16:46:48;8.02;;;2.20;;
39448;SDS011;25151;45.566;9.382;2022-07-15T16:49:48;6.65;;;2.28;;
39448;SDS011;25151;45.566;9.382;2022-07-15T16:52:50;6.82;;;2.50;;
39448;SDS011;25151;45.566;9.382;2022-07-15T16:55:51;9.70;;;2.50;;
39448;SDS011;25151;45.566;9.382;2022-07-15T16:58:52;6.05;;;2.13;;
39448;SDS011;25151;45.566;9.382;2022-07-15T17:01:53;5.93;;;2.22;;
39448;SDS011;25151;45.566;9.382;2022-07-15T17:04:54;6.97;;;2.10;;
39448;SDS011;25151;45.566;9.382;2022-07-15T17:07:54;5.45;;;2.08;;
39448;SDS011;25151;45.566;9.382;2022-07-15T17:10:56;5.18;;;1.83;;
39448;SDS011;25151;45.566;9.382;2022-07-15T17:13:56;3.92;;;2.33;;
39448;SDS011;25151;45.566;9.382;2022-07-15T17:16:58;6.47;;;2.22;;
39448;SDS011;25151;45.566;9.382;2022-07-15T17:19:59;6.18;;;1.90;;
39448;SDS011;25151;45.566;9.382;2022-07-15T17:22:59;4.53;;;2.00;;
39448;SDS011;25151;45.566;9.382;2022-07-15T17:26:00;5.28;;;1.92;;
39448;SDS011;25151;45.566;9.382;2022-07-15T17:29:03;3.92;;;1.88;;
39448;SDS011;25151;45.566;9.382;2022-07-15T17:32:04;5.25;;;2.55;;
39448;SDS011;25151;45.566;9.382;2022-07-15T17:35:06;4.88;;;1.90;;
39448;SDS011;25151;45.566;9.382;2022-07-15T17:38:08;4.47;;;1.80;;
39448;SDS011;25151;45.566;9.382;2022-07-15T17:41:09;3.35;;;2.00;;
39448;SDS011;25151;45.566;9.382;2022-07-15T17:44:12;7.82;;;2.15;;
39448;SDS011;25151;45.566;9.382;2022-07-15T17:47:13;4.90;;;1.80;;
39448;SDS011;25151;45.566;9.382;2022-07-15T17:50:14;4.07;;;1.77;;
39448;SDS011;25151;45.566;9.382;2022-07-15T17:53:15;5.95;;;2.13;;
39448;SDS011;25151;45.566;9.382;2022-07-15T17:56:17;5.60;;;2.60;;
39448;SDS011;25151;45.566;9.382;2022-07-15T17:59:18;4.22;;;2.08;;
39448;SDS011;25151;45.566;9.382;2022-07-15T18:02:21;7.03;;;2.10;;
39448;SDS011;25151;45.566;9.382;2022-07-15T18:05:25;5.30;;;2.05;;
39448;SDS011;25151;45.566;9.382;2022-07-15T18:08:29;6.55;;;2.13;;
39448;SDS011;25151;45.566;9.382;2022-07-15T18:11:29;6.53;;;2.30;;
39448;SDS011;25151;45.566;9.382;2022-07-15T18:14:30;5.82;;;1.90;;
39448;SDS011;25151;45.566;9.382;2022-07-15T18:17:31;7.18;;;1.85;;
39448;SDS011;25151;45.566;9.382;2022-07-15T18:20:36;4.97;;;1.67;;
39448;SDS011;25151;45.566;9.382;2022-07-15T18:23:38;5.75;;;2.15;;
39448;SDS011;25151;45.566;9.382;2022-07-15T18:26:40;3.83;;;1.85;;
39448;SDS011;25151;45.566;9.382;2022-07-15T18:29:41;4.72;;;2.10;;
39448;SDS011;25151;45.566;9.382;2022-07-15T18:32:42;5.63;;;2.25;;
39448;SDS011;25151;45.566;9.382;2022-07-15T18:35:45;3.20;;;1.85;;
39448;SDS011;25151;45.566;9.382;2022-07-15T18:38:45;6.18;;;1.92;;
39448;SDS011;25151;45.566;9.382;2022-07-15T18:41:46;3.90;;;1.70;;
39448;SDS011;25151;45.566;9.382;2022-07-15T18:44:47;6.85;;;2.22;;
39448;SDS011;25151;45.566;9.382;2022-07-15T18:47:51;3.22;;;1.95;;
39448;SDS011;25151;45.566;9.382;2022-07-15T18:50:54;7.45;;;2.33;;
39448;SDS011;25151;45.566;9.382;2022-07-15T18:53:54;3.08;;;2.10;;
39448;SDS011;25151;45.566;9.382;2022-07-15T18:56:55;4.40;;;2.47;;